createdAt,value
2019-03-31T00:12:06.513Z,54.20
2019-03-31T00:12:29.388Z,53.13
2019-03-31T00:15:15.237Z,53.48
2019-03-31T00:16:21.933Z,53.70
2019-03-31T00:17:28.170Z,53.75
2019-03-31T00:18:43.520Z,53.83
2019-03-31T00:19:51.907Z,54.70
2019-03-31T00:21:47.848Z,53.73
2019-03-31T00:23:37.793Z,53.60
2019-03-31T00:28:09.009Z,55.20
2019-03-31T00:29:30.072Z,53.02
2019-03-31T00:30:39.589Z,52.48
2019-03-31T00:31:49.956Z,53.58
2019-03-31T00:33:29.364Z,51.65
2019-03-31T00:36:11.563Z,51.63
2019-03-31T00:37:34.538Z,51.58
2019-03-31T00:38:23.409Z,51.55
2019-03-31T00:40:56.675Z,51.65
2019-03-31T00:41:07.734Z,51.60
2019-03-31T00:42:19.053Z,50.20
2019-03-31T00:43:28.199Z,52.48
2019-03-31T00:46:13.687Z,50.45
2019-03-31T00:47:29.601Z,51.63
2019-03-31T00:49:15.563Z,51.53
2019-03-31T00:50:01.328Z,52.10
2019-03-31T00:51:10.373Z,51.23
2019-03-31T00:54:17.727Z,49.25
2019-03-31T00:55:28.836Z,49.33
2019-03-31T00:56:35.482Z,51.73
2019-03-31T00:57:45.335Z,50.33
2019-03-31T01:00:45.129Z,49.77
2019-03-31T01:02:08.630Z,52.13
2019-03-31T01:04:25.229Z,51.45
2019-03-31T01:04:27.342Z,49.95
2019-03-31T01:05:37.513Z,50.58
2019-03-31T01:07:05.678Z,50.88
2019-03-31T01:08:13.743Z,52.60
2019-03-31T01:09:30.655Z,51.25
2019-03-31T01:10:44.639Z,52.65
2019-03-31T01:14:04.158Z,51.18
2019-03-31T01:15:05.698Z,51.83
2019-03-31T01:17:52.145Z,50.90
2019-03-31T01:20:03.435Z,51.85
2019-03-31T01:20:41.802Z,50.45
2019-03-31T01:27:23.091Z,52.15
2019-03-31T01:28:35.134Z,52.05
2019-03-31T01:31:29.264Z,52.55
2019-03-31T01:32:47.440Z,52.75
2019-03-31T01:34:02.158Z,52.73
2019-03-31T01:35:12.310Z,53.55
2019-03-31T01:36:32.429Z,50.70
2019-03-31T01:37:44.032Z,51.80
2019-03-31T01:39:53.427Z,49.13
2019-03-31T01:40:07.750Z,50.20
2019-03-31T01:41:25.873Z,50.48
2019-03-31T01:43:05.777Z,52.93
2019-03-31T01:45:16.983Z,51.90
2019-03-31T01:45:42.295Z,49.98
2019-03-31T01:48:24.780Z,51.20
2019-03-31T01:50:03.583Z,49.93
2019-03-31T01:50:59.864Z,50.00
2019-03-31T01:52:25.376Z,49.67
2019-03-31T01:54:43.773Z,50.23
2019-03-31T01:56:28.638Z,49.65
2019-03-31T01:57:24.180Z,49.23
2019-03-31T01:58:59.848Z,50.78
2019-03-31T02:03:19.277Z,48.38
2019-03-31T02:05:17.299Z,49.70
2019-03-31T02:05:46.645Z,48.08
2019-03-31T02:06:49.394Z,48.50
2019-03-31T02:08:04.292Z,49.93
2019-03-31T02:09:10.071Z,46.73
2019-03-31T02:10:16.073Z,47.38
2019-03-31T02:11:22.001Z,49.60
2019-03-31T02:12:37.690Z,49.77
2019-03-31T02:13:43.629Z,48.38
2019-03-31T02:14:57.526Z,49.18
2019-03-31T02:16:08.077Z,50.67
2019-03-31T02:17:17.594Z,49.42
2019-03-31T02:18:37.389Z,50.15
2019-03-31T02:19:49.819Z,46.40
2019-03-31T02:21:10.204Z,49.70
2019-03-31T02:22:19.323Z,49.73
2019-03-31T02:23:25.247Z,49.85
2019-03-31T02:24:32.733Z,48.08
2019-03-31T02:25:43.455Z,48.92
2019-03-31T02:26:56.631Z,49.42
2019-03-31T02:28:09.518Z,49.38
2019-03-31T02:29:19.375Z,47.93
2019-03-31T02:30:36.009Z,47.23
2019-03-31T02:32:02.372Z,47.78
2019-03-31T02:33:23.951Z,48.70
2019-03-31T02:34:39.888Z,46.98
2019-03-31T02:36:31.535Z,48.50
2019-03-31T02:43:56.850Z,46.80
2019-03-31T02:44:50.204Z,47.85
2019-03-31T02:46:04.163Z,47.85
2019-03-31T02:47:09.437Z,48.45
2019-03-31T02:48:22.855Z,47.30
2019-03-31T02:49:44.097Z,46.63
2019-03-31T02:50:52.931Z,46.28
2019-03-31T02:52:03.812Z,46.77
2019-03-31T02:53:49.409Z,47.17
2019-03-31T02:54:40.626Z,48.17
2019-03-31T02:56:07.814Z,47.25
2019-03-31T03:00:11.793Z,45.50
2019-03-31T03:02:06.339Z,48.25
2019-03-31T03:03:04.247Z,46.55
2019-03-31T03:05:40.196Z,44.77
2019-03-31T03:07:50.680Z,43.98
2019-03-31T03:08:22.390Z,43.95
2019-03-31T03:09:45.564Z,47.15
2019-03-31T03:11:14.494Z,46.65
2019-03-31T03:13:36.683Z,44.60
2019-03-31T03:14:59.055Z,47.58
2019-03-31T03:16:20.918Z,47.55
2019-03-31T03:17:31.895Z,46.58
2019-03-31T03:18:43.201Z,51.53
2019-03-31T03:19:57.807Z,48.48
2019-03-31T03:21:11.952Z,49.65
2019-03-31T03:22:38.456Z,48.70
2019-03-31T03:23:48.187Z,47.80
2019-03-31T03:27:26.219Z,46.23
2019-03-31T03:30:20.436Z,45.65
2019-03-31T03:31:31.982Z,48.65
2019-03-31T03:33:10.183Z,46.73
2019-03-31T03:33:58.844Z,46.50
2019-03-31T03:35:03.894Z,45.43
2019-03-31T03:36:15.234Z,45.90
2019-03-31T03:37:27.216Z,43.02
2019-03-31T03:38:46.468Z,43.28
2019-03-31T03:39:40.732Z,46.35
2019-03-31T03:41:04.083Z,45.60
2019-03-31T03:41:59.482Z,46.58
2019-03-31T03:43:11.374Z,46.55
2019-03-31T03:44:18.941Z,44.53
2019-03-31T03:45:30.648Z,45.80
2019-03-31T03:46:37.826Z,45.10
2019-03-31T03:47:45.086Z,45.03
2019-03-31T03:48:58.170Z,45.05
2019-03-31T03:52:37.576Z,44.70
2019-03-31T03:53:48.163Z,41.73
2019-03-31T03:54:50.288Z,41.55
2019-03-31T03:56:00.193Z,42.03
2019-03-31T03:57:15.742Z,42.93
2019-03-31T03:58:23.156Z,39.92
2019-03-31T03:59:35.390Z,41.15
2019-03-31T04:00:38.214Z,42.40
2019-03-31T04:02:53.815Z,42.25
2019-03-31T04:03:30.111Z,42.75
2019-03-31T04:04:05.072Z,43.65
2019-03-31T04:05:21.405Z,42.25
2019-03-31T04:06:50.765Z,44.35
2019-03-31T04:07:40.548Z,42.62
2019-03-31T04:08:50.498Z,42.53
2019-03-31T04:10:02.102Z,42.13
2019-03-31T04:11:14.492Z,40.48
2019-03-31T04:12:25.027Z,41.00
2019-03-31T04:13:29.306Z,39.25
2019-03-31T04:14:38.052Z,42.25
2019-03-31T04:15:47.369Z,40.38
2019-03-31T04:17:00.556Z,40.45
2019-03-31T04:18:05.917Z,41.08
2019-03-31T04:19:13.397Z,40.90
2019-03-31T04:20:20.716Z,41.10
2019-03-31T04:21:29.333Z,37.83
2019-03-31T04:22:40.470Z,39.90
2019-03-31T04:24:55.169Z,41.92
2019-03-31T04:26:06.586Z,43.55
2019-03-31T04:27:21.138Z,40.65
2019-03-31T04:28:30.684Z,43.58
2019-03-31T04:29:42.996Z,42.13
2019-03-31T04:30:53.616Z,43.45
2019-03-31T04:32:29.718Z,44.55
2019-03-31T04:33:13.396Z,41.02
2019-03-31T04:34:28.864Z,41.08
2019-03-31T04:36:00.525Z,42.13
2019-03-31T04:36:51.231Z,40.98
2019-03-31T04:39:30.062Z,38.95
2019-03-31T04:41:47.778Z,40.12
2019-03-31T04:42:50.135Z,43.08
2019-03-31T04:43:59.597Z,39.83
2019-03-31T04:45:10.407Z,41.73
2019-03-31T04:46:22.687Z,39.92
2019-03-31T04:47:38.935Z,39.73
2019-03-31T04:48:47.391Z,38.85
2019-03-31T04:50:09.924Z,41.73
2019-03-31T04:51:17.327Z,39.60
2019-03-31T04:52:31.261Z,38.92
2019-03-31T04:53:39.183Z,41.18
2019-03-31T04:55:10.435Z,37.75
2019-03-31T04:56:36.389Z,39.60
2019-03-31T04:57:36.781Z,40.45
2019-03-31T04:58:42.207Z,39.38
2019-03-31T04:59:48.481Z,38.63
2019-03-31T05:01:19.039Z,39.05
2019-03-31T05:02:11.398Z,41.37
2019-03-31T05:03:30.182Z,39.38
2019-03-31T05:05:01.627Z,39.20
2019-03-31T05:05:48.779Z,38.67
2019-03-31T05:08:21.200Z,35.73
2019-03-31T05:09:29.837Z,36.83
2019-03-31T05:10:46.736Z,38.15
2019-03-31T05:11:44.298Z,38.13
2019-03-31T05:12:52.267Z,37.15
2019-03-31T05:14:03.338Z,37.63
2019-03-31T05:15:12.001Z,36.88
2019-03-31T05:16:19.312Z,37.78
2019-03-31T05:17:27.419Z,38.17
2019-03-31T05:18:39.124Z,34.48
2019-03-31T05:19:50.701Z,37.63
2019-03-31T05:21:20.531Z,38.17
2019-03-31T05:22:30.941Z,37.33
2019-03-31T05:24:57.716Z,36.20
2019-03-31T05:26:11.365Z,38.53
2019-03-31T05:28:28.822Z,39.98
2019-03-31T05:29:38.670Z,39.20
2019-03-31T05:30:50.890Z,39.25
2019-03-31T05:32:22.708Z,37.35
2019-03-31T05:33:08.915Z,37.15
2019-03-31T05:40:22.661Z,37.83
2019-03-31T05:45:40.742Z,39.95
2019-03-31T05:51:06.287Z,36.42
2019-03-31T05:52:14.445Z,42.43
2019-03-31T05:53:39.495Z,41.08
2019-03-31T05:56:31.262Z,38.28
2019-03-31T06:00:25.620Z,34.20
2019-03-31T06:01:37.388Z,35.88
2019-03-31T06:11:46.160Z,39.80
2019-03-31T06:35:07.814Z,35.30
2019-03-31T06:38:12.153Z,33.25
2019-03-31T06:39:34.077Z,34.45
2019-03-31T06:42:36.100Z,34.73
2019-03-31T06:45:09.007Z,34.88
2019-03-31T06:46:18.510Z,34.08
2019-03-31T06:47:29.822Z,32.65
2019-03-31T06:49:27.470Z,32.28
2019-03-31T06:53:08.666Z,30.50
2019-03-31T06:54:27.613Z,28.67
2019-03-31T06:55:40.530Z,31.97
2019-03-31T06:58:31.638Z,27.62
2019-03-31T07:03:38.450Z,26.05
2019-03-31T07:13:46.628Z,28.20
2019-03-31T07:14:56.425Z,28.20
2019-03-31T07:16:10.959Z,28.60
2019-03-31T07:17:21.109Z,28.20
2019-03-31T07:18:36.566Z,28.50
2019-03-31T07:20:12.629Z,26.82
2019-03-31T07:20:55.150Z,27.32
2019-03-31T07:22:00.064Z,25.85
2019-03-31T07:23:07.838Z,26.62
2019-03-31T07:24:16.241Z,28.38
2019-03-31T07:27:02.543Z,28.20
2019-03-31T07:28:10.348Z,28.17
2019-03-31T07:29:33.307Z,26.70
2019-03-31T07:31:55.324Z,31.55
2019-03-31T07:32:07.976Z,26.60
2019-03-31T07:34:07.317Z,25.05
2019-03-31T07:35:18.645Z,25.50
2019-03-31T07:36:31.364Z,27.67
2019-03-31T07:37:47.148Z,28.90
2019-03-31T07:38:52.298Z,28.30
2019-03-31T07:40:52.811Z,27.67
2019-03-31T07:41:13.546Z,28.02
2019-03-31T07:42:25.518Z,27.58
2019-03-31T07:43:53.084Z,27.30
2019-03-31T07:45:03.239Z,28.02
2019-03-31T07:49:16.441Z,23.92
2019-03-31T07:50:16.297Z,23.47
2019-03-31T07:52:34.105Z,24.32
2019-03-31T07:52:47.649Z,22.98
2019-03-31T07:54:01.364Z,26.15
2019-03-31T07:55:21.993Z,24.55
2019-03-31T07:56:34.195Z,23.42
2019-03-31T07:57:41.807Z,23.57
2019-03-31T07:58:59.390Z,23.22
2019-03-31T08:00:15.790Z,23.92
2019-03-31T08:01:21.635Z,24.37
2019-03-31T08:02:39.252Z,24.92
2019-03-31T08:03:37.875Z,23.98
2019-03-31T08:05:01.709Z,24.67
2019-03-31T08:07:58.470Z,22.52
2019-03-31T08:09:10.304Z,21.30
2019-03-31T08:10:18.774Z,22.90
2019-03-31T08:11:42.337Z,22.48
2019-03-31T08:12:50.732Z,21.82
2019-03-31T08:15:29.411Z,26.05
2019-03-31T08:16:03.539Z,24.00
2019-03-31T08:16:41.197Z,23.62
2019-03-31T08:18:16.228Z,24.20
2019-03-31T08:19:03.992Z,22.95
2019-03-31T08:20:14.079Z,24.27
2019-03-31T08:21:19.916Z,21.82
2019-03-31T08:22:30.100Z,23.35
2019-03-31T08:23:42.970Z,25.37
2019-03-31T08:24:50.826Z,23.85
2019-03-31T08:25:58.693Z,23.80
2019-03-31T08:27:09.463Z,23.10
2019-03-31T08:28:13.749Z,24.47
2019-03-31T08:29:18.072Z,23.60
2019-03-31T08:30:23.410Z,23.32
2019-03-31T08:31:29.306Z,21.90
2019-03-31T08:32:42.023Z,23.83
2019-03-31T08:33:57.120Z,24.75
2019-03-31T08:34:59.612Z,21.37
2019-03-31T08:36:03.939Z,22.40
2019-03-31T08:37:09.767Z,23.10
2019-03-31T08:38:15.582Z,21.27
2019-03-31T08:39:19.730Z,20.50
2019-03-31T08:40:24.058Z,25.25
2019-03-31T08:41:29.584Z,23.62
2019-03-31T08:42:33.982Z,22.98
2019-03-31T08:43:50.199Z,24.45
2019-03-31T08:44:56.338Z,23.52
2019-03-31T08:46:06.324Z,26.02
2019-03-31T08:47:18.864Z,24.52
2019-03-31T08:48:22.574Z,22.15
2019-03-31T08:49:30.543Z,21.75
2019-03-31T08:50:35.089Z,24.15
2019-03-31T08:51:42.088Z,23.83
2019-03-31T08:52:52.638Z,24.72
2019-03-31T08:53:56.814Z,23.25
2019-03-31T08:55:07.399Z,25.05
2019-03-31T08:56:11.715Z,25.12
2019-03-31T08:57:46.658Z,23.62
2019-03-31T08:58:34.967Z,23.60
2019-03-31T08:59:39.237Z,23.07
2019-03-31T09:00:46.603Z,25.88
2019-03-31T09:01:52.435Z,25.02
2019-03-31T09:04:21.407Z,24.20
2019-03-31T09:05:33.359Z,24.32
2019-03-31T09:06:41.876Z,24.40
2019-03-31T09:07:45.816Z,25.12
2019-03-31T09:08:51.201Z,27.25
2019-03-31T09:09:55.462Z,25.57
2019-03-31T09:10:59.584Z,27.55
2019-03-31T09:12:06.863Z,23.27
2019-03-31T09:13:15.270Z,26.42
2019-03-31T09:14:22.579Z,26.93
2019-03-31T09:15:34.826Z,26.20
2019-03-31T09:16:40.714Z,26.15
2019-03-31T09:17:47.699Z,26.95
2019-03-31T09:18:53.841Z,28.00
2019-03-31T09:20:04.289Z,30.92
2019-03-31T09:21:15.560Z,27.55
2019-03-31T09:22:23.123Z,28.17
2019-03-31T09:23:24.285Z,28.70
2019-03-31T09:24:35.612Z,27.62
2019-03-31T09:25:35.246Z,26.23
2019-03-31T09:26:45.087Z,29.20
2019-03-31T09:27:51.392Z,28.67
2019-03-31T09:28:55.574Z,29.35
2019-03-31T09:30:04.930Z,30.15
2019-03-31T09:31:13.293Z,29.92
2019-03-31T09:32:18.547Z,27.82
2019-03-31T09:33:26.290Z,28.73
2019-03-31T09:34:32.240Z,29.52
2019-03-31T09:35:47.807Z,28.92
2019-03-31T09:36:56.623Z,28.07
2019-03-31T09:39:05.709Z,26.77
2019-03-31T09:40:13.980Z,27.27
2019-03-31T09:41:21.742Z,27.42
2019-03-31T09:42:27.105Z,29.70
2019-03-31T09:43:41.102Z,27.00
2019-03-31T09:44:44.381Z,28.98
2019-03-31T09:45:50.963Z,29.07
2019-03-31T09:46:55.251Z,30.65
2019-03-31T09:47:59.610Z,27.48
2019-03-31T09:49:05.580Z,28.38
2019-03-31T09:50:17.448Z,28.17
2019-03-31T09:51:23.882Z,28.27
2019-03-31T09:52:32.319Z,26.85
2019-03-31T09:53:39.008Z,28.70
2019-03-31T09:54:47.745Z,29.10
2019-03-31T09:55:53.686Z,27.15
2019-03-31T09:56:58.106Z,29.07
2019-03-31T09:58:04.479Z,27.40
2019-03-31T09:59:22.825Z,27.05
2019-03-31T10:00:45.325Z,25.68
2019-03-31T10:01:50.665Z,26.27
2019-03-31T10:03:01.427Z,25.12
2019-03-31T10:04:13.131Z,25.48
2019-03-31T10:05:25.544Z,24.45
2019-03-31T10:06:31.886Z,25.23
2019-03-31T10:07:41.196Z,23.10
2019-03-31T10:08:56.240Z,25.72
2019-03-31T10:09:57.261Z,23.38
2019-03-31T10:11:06.297Z,22.98
2019-03-31T10:12:16.118Z,25.55
2019-03-31T10:13:31.277Z,24.05
2019-03-31T10:14:37.851Z,22.90
2019-03-31T10:15:43.892Z,24.07
2019-03-31T10:16:51.034Z,24.75
2019-03-31T10:17:56.448Z,23.92
2019-03-31T10:19:02.361Z,23.15
2019-03-31T10:20:11.659Z,24.07
2019-03-31T10:21:29.801Z,24.20
2019-03-31T10:22:37.292Z,24.15
2019-03-31T10:23:43.232Z,26.23
2019-03-31T10:24:50.525Z,23.80
2019-03-31T10:25:59.265Z,25.45
2019-03-31T10:27:07.840Z,25.88
2019-03-31T10:28:13.885Z,23.77
2019-03-31T10:29:19.348Z,24.95
2019-03-31T10:30:45.170Z,25.80
2019-03-31T10:31:51.095Z,24.30
2019-03-31T10:32:55.887Z,23.80
2019-03-31T10:34:03.377Z,25.68
2019-03-31T10:35:15.512Z,26.87
2019-03-31T10:37:51.118Z,22.93
2019-03-31T10:38:57.298Z,24.52
2019-03-31T10:40:09.243Z,24.70
2019-03-31T10:41:22.086Z,24.82
2019-03-31T10:42:31.069Z,25.35
2019-03-31T10:43:38.566Z,27.25
2019-03-31T10:46:07.779Z,25.57
2019-03-31T10:47:25.817Z,23.85
2019-03-31T10:48:31.564Z,26.80
2019-03-31T10:49:41.179Z,26.05
2019-03-31T10:50:49.885Z,26.40
2019-03-31T10:52:02.005Z,24.07
2019-03-31T10:53:11.789Z,23.05
2019-03-31T10:54:28.289Z,24.12
2019-03-31T10:55:36.321Z,24.70
2019-03-31T10:56:44.596Z,27.02
2019-03-31T10:57:51.274Z,28.80
2019-03-31T10:59:04.578Z,26.80
2019-03-31T11:00:10.701Z,28.98
2019-03-31T11:01:38.062Z,28.80
2019-03-31T11:02:43.613Z,27.52
2019-03-31T11:03:49.811Z,26.97
2019-03-31T11:05:05.865Z,27.05
2019-03-31T11:06:17.521Z,27.05
2019-03-31T11:07:22.565Z,26.57
2019-03-31T11:08:30.077Z,26.07
2019-03-31T11:09:53.326Z,25.43
2019-03-31T11:11:05.495Z,25.15
2019-03-31T11:13:40.111Z,22.67
2019-03-31T11:14:53.553Z,23.80
2019-03-31T11:15:57.471Z,24.43
2019-03-31T11:17:12.361Z,27.98
2019-03-31T11:18:22.256Z,25.65
2019-03-31T11:19:29.886Z,26.82
2019-03-31T11:20:38.494Z,25.82
2019-03-31T11:22:04.745Z,27.77
2019-03-31T11:23:16.800Z,25.25
2019-03-31T11:24:29.544Z,27.48
2019-03-31T11:25:38.499Z,26.12
2019-03-31T11:26:44.573Z,26.35
2019-03-31T11:27:48.944Z,26.93
2019-03-31T11:29:25.135Z,26.97
2019-03-31T11:30:06.932Z,25.57
2019-03-31T11:31:17.987Z,24.05
2019-03-31T11:32:28.897Z,25.77
2019-03-31T11:33:35.639Z,27.82
2019-03-31T11:34:47.900Z,26.52
2019-03-31T11:35:54.414Z,25.25
2019-03-31T11:37:13.787Z,27.15
2019-03-31T11:38:21.929Z,24.32
2019-03-31T11:39:37.037Z,27.22
2019-03-31T11:42:08.266Z,24.30
2019-03-31T11:43:20.991Z,27.55
2019-03-31T11:44:21.606Z,27.65
2019-03-31T11:45:30.609Z,28.45
2019-03-31T11:46:34.884Z,25.70
2019-03-31T11:47:44.777Z,28.40
2019-03-31T11:48:57.283Z,26.37
2019-03-31T11:49:58.398Z,27.90
2019-03-31T11:51:10.287Z,27.87
2019-03-31T11:52:21.680Z,28.05
2019-03-31T11:53:28.943Z,27.50
2019-03-31T11:54:28.517Z,26.93
2019-03-31T11:55:37.168Z,28.07
2019-03-31T11:56:44.819Z,27.55
2019-03-31T11:57:58.134Z,28.47
2019-03-31T11:59:06.423Z,28.65
2019-03-31T12:00:29.680Z,29.63
2019-03-31T12:01:33.473Z,30.85
2019-03-31T12:02:37.893Z,30.02
2019-03-31T12:03:56.481Z,27.50
2019-03-31T12:04:57.762Z,29.75
2019-03-31T12:06:05.396Z,27.52
2019-03-31T12:07:11.256Z,27.25
2019-03-31T12:08:17.006Z,29.05
2019-03-31T12:10:28.941Z,28.12
2019-03-31T12:10:33.379Z,26.97
2019-03-31T12:12:14.947Z,28.60
2019-03-31T12:12:59.190Z,26.93
2019-03-31T12:14:20.842Z,27.65
2019-03-31T12:17:07.580Z,25.77
2019-03-31T12:17:59.095Z,27.82
2019-03-31T12:19:15.805Z,29.18
2019-03-31T12:20:21.628Z,27.85
2019-03-31T12:21:29.216Z,27.55
2019-03-31T12:22:38.060Z,27.37
2019-03-31T12:23:49.585Z,29.00
2019-03-31T12:24:55.360Z,29.05
2019-03-31T12:26:00.077Z,30.12
2019-03-31T12:27:10.187Z,30.20
2019-03-31T12:28:41.684Z,27.50
2019-03-31T12:29:41.320Z,29.67
2019-03-31T12:30:49.682Z,29.25
2019-03-31T12:31:54.938Z,29.67
2019-03-31T12:33:10.680Z,29.75
2019-03-31T12:34:13.442Z,29.50
2019-03-31T12:35:20.933Z,29.02
2019-03-31T12:36:25.242Z,29.37
2019-03-31T12:37:42.179Z,29.63
2019-03-31T12:38:42.689Z,30.00
2019-03-31T12:39:49.731Z,29.67
2019-03-31T12:40:54.649Z,32.00
2019-03-31T12:42:01.990Z,30.75
2019-03-31T12:43:19.715Z,29.30
2019-03-31T12:44:25.473Z,32.58
2019-03-31T12:45:35.485Z,32.93
2019-03-31T12:46:44.253Z,31.87
2019-03-31T12:47:50.916Z,29.48
2019-03-31T12:48:57.892Z,30.12
2019-03-31T12:50:02.133Z,28.30
2019-03-31T12:51:06.286Z,31.97
2019-03-31T12:52:14.693Z,29.45
2019-03-31T12:53:20.794Z,29.30
2019-03-31T12:54:27.247Z,32.25
2019-03-31T12:55:33.063Z,32.50
2019-03-31T12:56:39.985Z,29.07
2019-03-31T12:57:44.505Z,30.88
2019-03-31T12:58:54.157Z,29.55
2019-03-31T13:00:06.503Z,30.02
2019-03-31T13:01:05.814Z,29.63
2019-03-31T13:02:10.097Z,28.38
2019-03-31T13:03:19.101Z,29.70
2019-03-31T13:04:23.583Z,27.80
2019-03-31T13:05:32.338Z,31.77
2019-03-31T13:06:39.436Z,29.27
2019-03-31T13:07:55.686Z,28.95
2019-03-31T13:08:49.463Z,29.90
2019-03-31T13:09:54.459Z,30.05
2019-03-31T13:10:58.700Z,30.37
2019-03-31T13:12:06.564Z,27.75
2019-03-31T13:13:16.834Z,28.25
2019-03-31T13:14:19.833Z,28.85
2019-03-31T13:15:24.183Z,28.52
2019-03-31T13:16:30.008Z,28.55
2019-03-31T13:17:34.312Z,28.40
2019-03-31T13:18:38.623Z,29.32
2019-03-31T13:19:42.811Z,26.40
2019-03-31T13:20:48.664Z,29.20
2019-03-31T13:21:52.888Z,29.07
2019-03-31T13:22:57.036Z,29.90
2019-03-31T13:24:01.243Z,27.65
2019-03-31T13:25:07.212Z,28.38
2019-03-31T13:26:12.906Z,27.52
2019-03-31T13:27:19.846Z,27.90
2019-03-31T13:28:28.357Z,29.27
2019-03-31T13:29:32.511Z,26.68
2019-03-31T13:30:43.122Z,28.17
2019-03-31T13:31:42.709Z,27.22
2019-03-31T13:32:46.991Z,29.50
2019-03-31T13:33:51.213Z,27.02
2019-03-31T13:34:55.306Z,29.37
2019-03-31T13:36:05.644Z,27.27
2019-03-31T13:37:12.754Z,28.98
2019-03-31T13:38:16.999Z,28.70
2019-03-31T13:39:23.192Z,26.62
2019-03-31T13:40:27.508Z,26.80
2019-03-31T13:41:33.383Z,30.72
2019-03-31T13:42:37.645Z,26.73
2019-03-31T13:43:41.917Z,28.38
2019-03-31T13:44:47.720Z,26.85
2019-03-31T13:45:54.462Z,25.30
2019-03-31T13:47:23.566Z,27.50
2019-03-31T13:48:06.267Z,27.58
2019-03-31T13:49:14.686Z,28.00
2019-03-31T13:50:30.806Z,29.52
2019-03-31T13:51:28.307Z,28.57
2019-03-31T13:52:32.847Z,27.77
2019-03-31T13:53:38.710Z,28.77
2019-03-31T13:54:42.958Z,28.17
2019-03-31T13:55:48.985Z,29.07
2019-03-31T13:56:53.892Z,26.85
2019-03-31T13:57:59.380Z,26.48
2019-03-31T13:59:09.099Z,27.70
2019-03-31T14:00:12.905Z,27.65
2019-03-31T14:01:17.106Z,25.10
2019-03-31T14:02:22.262Z,27.10
2019-03-31T14:03:29.723Z,27.85
2019-03-31T14:04:35.518Z,25.08
2019-03-31T14:05:39.025Z,26.12
2019-03-31T14:06:45.990Z,26.40
2019-03-31T14:07:50.321Z,26.62
2019-03-31T14:09:03.005Z,25.30
2019-03-31T14:10:07.163Z,26.82
2019-03-31T14:11:11.367Z,25.02
2019-03-31T14:12:16.886Z,25.60
2019-03-31T14:13:20.996Z,26.90
2019-03-31T14:14:28.286Z,23.77
2019-03-31T14:15:35.278Z,21.90
2019-03-31T14:16:40.145Z,22.70
2019-03-31T14:17:44.311Z,21.52
2019-03-31T14:18:49.474Z,20.65
2019-03-31T14:19:53.656Z,19.70
2019-03-31T14:20:57.872Z,19.20
2019-03-31T14:22:01.968Z,18.52
2019-03-31T14:23:06.992Z,18.48
2019-03-31T14:24:11.303Z,17.75
2019-03-31T14:25:17.998Z,18.00
2019-03-31T14:26:21.444Z,18.50
2019-03-31T14:27:25.659Z,17.02
2019-03-31T14:28:29.906Z,17.17
2019-03-31T14:29:34.581Z,17.35
2019-03-31T14:30:51.966Z,18.27
2019-03-31T14:31:57.455Z,16.75
2019-03-31T14:33:01.835Z,15.30
2019-03-31T14:34:06.656Z,15.50
2019-03-31T14:35:11.017Z,14.07
2019-03-31T14:36:16.734Z,13.55
2019-03-31T14:38:51.441Z,15.58
2019-03-31T14:39:52.181Z,14.45
2019-03-31T14:41:47.167Z,14.35
2019-03-31T14:45:37.758Z,11.70
2019-03-31T14:46:49.322Z,11.43
2019-03-31T14:47:59.069Z,10.35
2019-03-31T14:49:01.844Z,10.93
2019-03-31T14:51:48.450Z,9.95
2019-03-31T14:52:52.610Z,10.10
2019-03-31T14:53:56.840Z,10.40
2019-03-31T14:55:12.904Z,10.23
2019-03-31T14:56:14.770Z,9.83
2019-03-31T14:57:40.603Z,10.68
2019-03-31T14:59:44.400Z,9.63
2019-03-31T15:00:50.256Z,10.48
2019-03-31T15:01:56.199Z,9.73
2019-03-31T15:04:23.912Z,10.78
2019-03-31T15:04:55.621Z,10.10
2019-03-31T15:05:28.227Z,10.50
2019-03-31T15:06:32.570Z,10.80
2019-03-31T15:07:39.867Z,10.25
2019-03-31T15:08:54.180Z,9.95
2019-03-31T15:09:51.358Z,10.08
2019-03-31T15:10:59.111Z,10.05
2019-03-31T15:12:03.353Z,9.28
2019-03-31T15:13:10.705Z,9.80
2019-03-31T15:14:15.029Z,11.08
2019-03-31T15:15:19.240Z,11.00
2019-03-31T15:16:25.044Z,9.85
2019-03-31T15:17:31.477Z,9.88
2019-03-31T15:18:35.813Z,8.83
2019-03-31T15:19:43.163Z,9.20
2019-03-31T15:20:51.819Z,10.45
2019-03-31T15:22:01.454Z,9.55
2019-03-31T15:23:04.103Z,9.95
2019-03-31T15:24:11.915Z,9.28
2019-03-31T15:25:19.764Z,8.63
2019-03-31T15:26:23.689Z,9.60
2019-03-31T15:27:30.104Z,9.20
2019-03-31T15:28:34.349Z,9.20
2019-03-31T15:29:39.741Z,9.78
2019-03-31T15:30:43.990Z,8.83
2019-03-31T15:31:51.897Z,9.08
2019-03-31T15:33:17.621Z,8.48
2019-03-31T15:34:20.058Z,8.35
2019-03-31T15:35:24.248Z,8.68
2019-03-31T15:36:35.464Z,9.00
2019-03-31T15:37:46.458Z,8.98
2019-03-31T15:38:49.387Z,8.65
2019-03-31T15:40:02.818Z,9.08
2019-03-31T15:41:20.624Z,9.23
2019-03-31T15:42:18.082Z,8.85
2019-03-31T15:43:25.354Z,9.03
2019-03-31T15:44:31.278Z,8.05
2019-03-31T15:45:41.666Z,8.20
2019-03-31T15:48:01.734Z,7.40
2019-03-31T15:49:13.416Z,8.00
2019-03-31T15:50:19.372Z,6.80
2019-03-31T15:51:29.825Z,6.95
2019-03-31T15:52:40.134Z,6.60
2019-03-31T15:53:48.907Z,6.40
2019-03-31T15:54:54.967Z,6.92
2019-03-31T15:56:00.998Z,7.03
2019-03-31T15:57:05.358Z,6.58
2019-03-31T15:58:11.260Z,6.53
2019-03-31T15:59:19.128Z,7.55
2019-03-31T16:00:32.677Z,6.78
2019-03-31T16:01:33.776Z,6.65
2019-03-31T16:02:41.946Z,6.05
2019-03-31T16:03:46.252Z,6.45
2019-03-31T16:04:50.598Z,5.45
2019-03-31T16:05:57.717Z,6.42
2019-03-31T16:07:04.979Z,5.62
2019-03-31T16:08:11.369Z,6.35
2019-03-31T16:09:23.523Z,6.00
2019-03-31T16:10:26.494Z,5.45
2019-03-31T16:11:33.615Z,5.10
2019-03-31T16:12:38.365Z,4.62
2019-03-31T16:13:44.176Z,4.45
2019-03-31T16:14:52.925Z,4.90
2019-03-31T16:15:55.565Z,5.10
2019-03-31T16:17:02.517Z,4.55
2019-03-31T16:18:08.419Z,4.62
2019-03-31T16:19:15.957Z,4.10
2019-03-31T16:20:22.945Z,4.08
2019-03-31T16:21:38.292Z,4.25
2019-03-31T16:22:38.030Z,4.78
2019-03-31T16:24:02.701Z,4.35
2019-03-31T16:25:08.837Z,4.28
2019-03-31T16:26:16.134Z,4.37
2019-03-31T16:27:24.010Z,4.47
2019-03-31T16:28:33.109Z,4.75
2019-03-31T16:29:46.328Z,4.30
2019-03-31T16:30:55.358Z,4.50
2019-03-31T16:32:03.790Z,4.60
2019-03-31T16:33:12.305Z,4.40
2019-03-31T16:34:18.672Z,4.00
2019-03-31T16:35:23.412Z,4.33
2019-03-31T16:36:30.309Z,4.05
2019-03-31T16:37:35.063Z,4.62
2019-03-31T16:38:39.358Z,4.33
2019-03-31T16:39:44.158Z,4.30
2019-03-31T16:40:51.218Z,4.30
2019-03-31T16:41:58.424Z,4.30
2019-03-31T16:43:02.801Z,4.55
2019-03-31T16:44:07.290Z,3.87
2019-03-31T16:45:14.228Z,4.20
2019-03-31T16:46:20.295Z,3.85
2019-03-31T16:47:28.239Z,4.30
2019-03-31T16:48:35.366Z,4.83
2019-03-31T16:49:42.676Z,4.00
2019-03-31T16:50:49.951Z,4.42
2019-03-31T16:51:54.232Z,4.05
2019-03-31T16:52:58.621Z,4.50
2019-03-31T16:54:08.892Z,4.20
2019-03-31T16:55:14.909Z,4.25
2019-03-31T16:56:19.296Z,4.45
2019-03-31T16:57:25.188Z,4.08
2019-03-31T16:58:32.084Z,4.62
2019-03-31T16:59:36.414Z,4.17
2019-03-31T17:00:43.938Z,4.53
2019-03-31T17:01:50.955Z,3.95
2019-03-31T17:02:56.522Z,4.35
2019-03-31T17:04:06.871Z,4.35
2019-03-31T17:05:21.696Z,4.80
2019-03-31T17:06:22.116Z,4.20
2019-03-31T17:07:24.239Z,3.98
2019-03-31T17:08:32.072Z,4.12
2019-03-31T17:09:50.900Z,4.10
2019-03-31T17:10:46.584Z,4.95
2019-03-31T17:12:01.332Z,4.33
2019-03-31T17:13:43.833Z,5.45
2019-03-31T17:14:52.783Z,4.35
2019-03-31T17:15:56.924Z,4.37
2019-03-31T17:17:03.981Z,4.80
2019-03-31T17:18:08.123Z,4.78
2019-03-31T17:19:12.946Z,4.92
2019-03-31T17:20:17.298Z,5.25
2019-03-31T17:21:22.954Z,4.50
2019-03-31T17:22:28.012Z,4.53
2019-03-31T17:23:32.051Z,4.92
2019-03-31T17:24:38.001Z,4.45
2019-03-31T17:25:43.695Z,4.72
2019-03-31T17:26:47.847Z,4.90
2019-03-31T17:27:54.620Z,4.95
2019-03-31T17:28:58.893Z,5.22
2019-03-31T17:30:05.937Z,4.58
2019-03-31T17:31:10.311Z,4.42
2019-03-31T17:32:16.035Z,4.75
2019-03-31T17:33:22.539Z,4.90
2019-03-31T17:34:31.384Z,3.95
2019-03-31T17:35:35.757Z,4.53
2019-03-31T17:36:57.210Z,5.25
2019-03-31T17:37:53.909Z,4.40
2019-03-31T17:39:02.485Z,4.75
2019-03-31T17:40:12.263Z,4.62
2019-03-31T17:41:27.378Z,4.25
2019-03-31T17:42:36.934Z,3.80
2019-03-31T17:43:45.770Z,4.15
2019-03-31T17:44:54.562Z,4.30
2019-03-31T17:46:10.485Z,3.80
2019-03-31T17:47:15.849Z,3.98